createdAt,value
2023-01-25T00:00:50.594Z,17.92
2023-01-25T00:03:20.448Z,16.80
2023-01-25T00:05:48.601Z,16.92
2023-01-25T00:08:16.906Z,15.45
2023-01-25T00:10:45.012Z,13.75
2023-01-25T00:13:13.122Z,14.98
2023-01-25T00:15:41.254Z,15.45
2023-01-25T00:18:09.354Z,17.35
2023-01-25T00:20:38.831Z,15.93
2023-01-25T00:23:06.984Z,18.23
2023-01-25T00:25:35.102Z,17.50
2023-01-25T00:28:03.248Z,16.95
2023-01-25T00:30:31.347Z,16.65
2023-01-25T00:33:07.346Z,15.43
2023-01-25T00:35:36.143Z,16.55
2023-01-25T00:38:18.839Z,18.00
2023-01-25T00:40:46.961Z,19.17
2023-01-25T00:43:15.285Z,17.15
2023-01-25T00:45:43.393Z,15.50
2023-01-25T00:48:11.541Z,16.95
2023-01-25T00:50:39.739Z,15.73
2023-01-25T00:53:09.266Z,16.52
2023-01-25T00:55:37.351Z,18.45
2023-01-25T00:58:05.464Z,17.35
2023-01-25T01:00:33.631Z,15.30
2023-01-25T01:03:01.726Z,16.38
2023-01-25T01:05:29.830Z,14.13
2023-01-25T01:07:59.055Z,14.95
2023-01-25T01:10:28.604Z,13.45
2023-01-25T01:12:56.758Z,12.90
2023-01-25T01:15:24.880Z,12.38
2023-01-25T01:17:53.150Z,13.63
2023-01-25T01:20:21.303Z,16.15
2023-01-25T01:22:49.460Z,15.70
2023-01-25T01:25:17.679Z,14.07
2023-01-25T01:27:47.212Z,13.55
2023-01-25T01:30:15.518Z,13.13
2023-01-25T01:32:43.758Z,12.50
2023-01-25T01:35:11.997Z,16.02
2023-01-25T01:37:43.780Z,16.83
2023-01-25T01:40:16.049Z,17.63
2023-01-25T01:43:03.255Z,18.13
2023-01-25T01:45:53.236Z,15.20
2023-01-25T01:48:29.935Z,13.63
2023-01-25T01:51:01.806Z,13.18
2023-01-25T01:53:32.257Z,14.90
2023-01-25T01:56:06.104Z,13.93
2023-01-25T01:58:36.810Z,14.15
2023-01-25T02:01:05.109Z,15.98
2023-01-25T02:03:34.421Z,14.35
2023-01-25T02:06:08.870Z,14.75
2023-01-25T02:08:40.926Z,13.73
2023-01-25T02:11:10.367Z,14.98
2023-01-25T02:13:40.018Z,15.20
2023-01-25T02:16:15.460Z,14.40
2023-01-25T02:18:43.641Z,13.68
2023-01-25T02:21:12.472Z,14.88
2023-01-25T02:23:48.679Z,15.15
2023-01-25T02:26:19.913Z,14.55
2023-01-25T02:28:53.752Z,13.88
2023-01-25T02:31:22.197Z,14.68
2023-01-25T02:33:50.577Z,12.50
2023-01-25T02:36:23.437Z,13.73
2023-01-25T02:38:55.816Z,12.00
2023-01-25T02:41:31.493Z,11.68
2023-01-25T02:44:00.814Z,12.90
2023-01-25T02:46:31.920Z,11.52
2023-01-25T02:49:01.360Z,9.98
2023-01-25T02:51:31.616Z,11.40
2023-01-25T02:54:00.837Z,9.02
2023-01-25T02:56:30.585Z,11.50
2023-01-25T02:58:58.815Z,12.18
2023-01-25T03:01:27.125Z,12.43
2023-01-25T03:03:55.252Z,13.23
2023-01-25T03:06:23.338Z,11.77
2023-01-25T03:08:51.473Z,10.65
2023-01-25T03:11:19.581Z,11.63
2023-01-25T03:13:49.116Z,11.63
2023-01-25T03:16:17.302Z,11.00
2023-01-25T03:18:45.883Z,10.57
2023-01-25T03:21:16.788Z,10.13
2023-01-25T03:23:46.089Z,10.00
2023-01-25T03:26:16.102Z,9.98
2023-01-25T03:28:45.134Z,10.48
2023-01-25T03:31:17.991Z,10.20
2023-01-25T03:33:47.167Z,10.07
2023-01-25T03:36:15.386Z,8.57
2023-01-25T03:38:43.585Z,9.55
2023-01-25T03:41:13.008Z,10.20
2023-01-25T03:43:41.151Z,10.18
2023-01-25T03:46:09.304Z,10.77
2023-01-25T03:48:38.825Z,10.85
2023-01-25T03:51:07.256Z,11.80
2023-01-25T03:53:35.379Z,11.95
2023-01-25T03:56:07.275Z,9.95
2023-01-25T03:58:36.673Z,11.90
2023-01-25T04:01:06.113Z,10.63
2023-01-25T04:03:35.213Z,13.30
2023-01-25T04:06:05.638Z,12.80
2023-01-25T04:08:34.187Z,13.68
2023-01-25T04:11:03.854Z,15.27
2023-01-25T04:13:35.295Z,15.27
2023-01-25T04:16:03.641Z,14.88
2023-01-25T04:18:31.793Z,14.80
2023-01-25T04:21:00.312Z,14.52
2023-01-25T04:23:29.821Z,14.30
2023-01-25T04:25:59.558Z,15.18
2023-01-25T04:28:29.091Z,15.25
2023-01-25T04:30:58.139Z,14.13
2023-01-25T04:33:26.990Z,14.35
2023-01-25T04:35:55.092Z,13.35
2023-01-25T04:38:23.393Z,14.45
2023-01-25T04:40:53.817Z,13.30
2023-01-25T04:43:22.684Z,13.48
2023-01-25T04:45:50.841Z,13.48
2023-01-25T04:48:19.322Z,14.00
2023-01-25T04:50:47.788Z,12.10
2023-01-25T04:53:16.001Z,12.07
2023-01-25T04:55:47.396Z,11.05
2023-01-25T04:58:16.937Z,12.20
2023-01-25T05:00:45.115Z,12.75
2023-01-25T05:03:13.348Z,12.90
2023-01-25T05:05:47.416Z,12.40
2023-01-25T05:08:15.576Z,14.25
2023-01-25T05:10:43.679Z,13.43
2023-01-25T05:13:11.788Z,14.93
2023-01-25T05:15:41.388Z,13.85
2023-01-25T05:18:09.715Z,12.68
2023-01-25T05:20:38.153Z,13.15
2023-01-25T05:23:06.247Z,12.73
2023-01-25T05:25:51.586Z,12.23
2023-01-25T05:28:19.760Z,12.07
2023-01-25T05:30:49.658Z,11.38
2023-01-25T05:33:17.852Z,14.10
2023-01-25T05:35:46.147Z,13.45
2023-01-25T05:38:14.431Z,13.38
2023-01-25T05:40:42.523Z,12.27
2023-01-25T05:43:10.962Z,13.30
2023-01-25T05:45:40.412Z,13.57
2023-01-25T05:48:09.950Z,13.40
2023-01-25T05:50:38.046Z,13.13
2023-01-25T05:53:06.172Z,12.98
2023-01-25T05:55:36.843Z,12.32
2023-01-25T05:58:04.981Z,11.40
2023-01-25T06:00:33.164Z,10.93
2023-01-25T06:03:02.489Z,11.35
2023-01-25T06:05:32.090Z,10.90
2023-01-25T06:08:00.500Z,11.23
2023-01-25T06:10:28.597Z,12.40
2023-01-25T06:12:59.444Z,10.35
2023-01-25T06:15:28.036Z,11.18
2023-01-25T06:17:56.933Z,11.23
2023-01-25T06:20:25.035Z,12.00
2023-01-25T06:22:55.864Z,10.75
2023-01-25T06:25:23.927Z,9.57
2023-01-25T06:27:52.057Z,10.73
2023-01-25T06:30:20.173Z,10.68
2023-01-25T06:32:48.300Z,11.38
2023-01-25T06:35:16.483Z,10.70
2023-01-25T06:37:44.581Z,11.13
2023-01-25T06:40:14.595Z,10.07
2023-01-25T06:42:42.871Z,11.02
2023-01-25T06:45:12.214Z,11.15
2023-01-25T06:47:40.678Z,10.73
2023-01-25T06:50:09.928Z,9.98
2023-01-25T06:52:38.322Z,11.15
2023-01-25T06:55:08.572Z,10.48
2023-01-25T06:57:38.241Z,9.82
2023-01-25T07:00:07.753Z,10.57
2023-01-25T07:02:37.186Z,10.18
2023-01-25T07:05:05.946Z,10.27
2023-01-25T07:07:34.079Z,9.88
2023-01-25T07:10:02.329Z,9.57
2023-01-25T07:12:30.827Z,9.68
2023-01-25T07:15:00.324Z,11.18
2023-01-25T07:17:28.461Z,9.75
2023-01-25T07:19:56.573Z,9.32
2023-01-25T07:22:24.722Z,8.98
2023-01-25T07:24:54.039Z,9.45
2023-01-25T07:27:22.143Z,8.77
2023-01-25T07:29:50.296Z,9.23
2023-01-25T07:32:19.788Z,9.73
2023-01-25T07:34:47.886Z,9.55
2023-01-25T07:37:16.100Z,9.38
2023-01-25T07:39:48.675Z,9.80
2023-01-25T07:42:16.851Z,10.20
2023-01-25T07:44:44.941Z,9.07
2023-01-25T07:47:13.045Z,9.23
2023-01-25T07:49:42.550Z,9.68
2023-01-25T07:52:10.664Z,9.07
2023-01-25T07:54:38.787Z,9.98
2023-01-25T07:57:06.855Z,9.95
2023-01-25T07:59:34.977Z,9.63
2023-01-25T08:02:03.113Z,10.05
2023-01-25T08:04:31.280Z,9.35
2023-01-25T08:07:00.774Z,9.07
2023-01-25T08:09:28.984Z,10.50
2023-01-25T08:11:57.451Z,8.60
2023-01-25T08:14:25.955Z,9.32
2023-01-25T08:16:54.091Z,9.55
2023-01-25T08:19:22.362Z,8.82
2023-01-25T08:21:50.687Z,10.13
2023-01-25T08:24:21.064Z,9.82
2023-01-25T08:26:49.343Z,9.13
2023-01-25T08:29:17.869Z,9.82
2023-01-25T08:31:46.024Z,9.43
2023-01-25T08:34:15.855Z,9.93
2023-01-25T08:36:43.987Z,9.35
2023-01-25T08:39:13.442Z,9.38
2023-01-25T08:41:43.213Z,9.07
2023-01-25T08:44:11.775Z,8.32
2023-01-25T08:46:40.147Z,8.85
2023-01-25T08:49:10.470Z,8.85
2023-01-25T08:51:38.566Z,9.10
2023-01-25T08:54:08.104Z,10.05
2023-01-25T08:56:38.632Z,10.27
2023-01-25T08:59:08.598Z,9.70
2023-01-25T09:01:36.806Z,10.27
2023-01-25T09:04:05.099Z,9.57
2023-01-25T09:06:34.792Z,9.13
2023-01-25T09:09:04.333Z,8.75
2023-01-25T09:11:34.416Z,8.68
2023-01-25T09:14:02.524Z,9.65
2023-01-25T09:16:32.063Z,9.13
2023-01-25T09:19:02.031Z,9.43
2023-01-25T09:21:30.753Z,9.73
2023-01-25T09:24:07.929Z,10.00
2023-01-25T09:26:38.974Z,8.65
2023-01-25T09:29:08.844Z,8.73
2023-01-25T09:31:41.073Z,9.25
2023-01-25T09:34:10.116Z,9.25
2023-01-25T09:36:38.403Z,8.95
2023-01-25T09:39:06.653Z,9.85
2023-01-25T09:42:06.608Z,10.05
2023-01-25T09:44:52.915Z,10.40
2023-01-25T09:47:30.797Z,8.98
2023-01-25T09:50:13.259Z,9.25
2023-01-25T09:53:08.797Z,9.85
2023-01-25T09:55:37.360Z,10.00
2023-01-25T09:58:05.776Z,10.48
2023-01-25T10:00:37.303Z,10.65
2023-01-25T10:03:18.056Z,11.43
2023-01-25T10:05:48.806Z,10.48
2023-01-25T10:08:26.429Z,10.35
2023-01-25T10:11:00.971Z,10.10
2023-01-25T10:13:32.007Z,9.25
2023-01-25T10:16:09.933Z,9.40
2023-01-25T10:18:55.663Z,9.70
2023-01-25T10:21:29.467Z,10.13
2023-01-25T10:24:22.420Z,10.02
2023-01-25T10:26:56.820Z,9.70
2023-01-25T10:29:29.096Z,9.57
2023-01-25T10:32:03.893Z,11.43
2023-01-25T10:34:50.737Z,10.68
2023-01-25T10:37:26.786Z,11.02
2023-01-25T10:40:00.276Z,11.20
2023-01-25T10:42:32.914Z,10.20
2023-01-25T10:45:01.038Z,9.40
2023-01-25T10:47:33.085Z,9.88
2023-01-25T10:50:02.595Z,9.82
2023-01-25T10:52:33.064Z,9.95
2023-01-25T10:55:23.734Z,9.02
2023-01-25T10:57:56.800Z,9.60
2023-01-25T11:00:30.540Z,9.32
2023-01-25T11:03:01.685Z,9.38
2023-01-25T11:05:34.077Z,8.88
2023-01-25T11:08:24.174Z,9.88
2023-01-25T11:10:53.363Z,9.18
2023-01-25T11:13:24.658Z,9.55
2023-01-25T11:15:55.497Z,9.30
2023-01-25T11:18:27.386Z,9.23
2023-01-25T11:21:07.972Z,9.13
2023-01-25T11:23:36.323Z,9.93
2023-01-25T11:26:16.276Z,9.18
2023-01-25T11:28:45.725Z,9.65
2023-01-25T11:31:16.001Z,9.63
2023-01-25T11:33:44.416Z,10.50
2023-01-25T11:36:23.816Z,9.70
2023-01-25T11:39:06.282Z,10.18
2023-01-25T11:41:44.374Z,10.50
2023-01-25T11:44:44.657Z,10.25
2023-01-25T11:47:23.513Z,10.00
2023-01-25T11:49:59.733Z,10.35
2023-01-25T11:52:41.493Z,10.93
2023-01-25T11:55:22.982Z,10.02
2023-01-25T11:58:04.557Z,10.25
2023-01-25T12:00:49.393Z,9.68
2023-01-25T12:03:37.842Z,10.25
2023-01-25T12:06:14.275Z,10.23
2023-01-25T12:09:09.666Z,9.80
2023-01-25T12:11:52.259Z,8.63
2023-01-25T12:14:29.123Z,9.20
2023-01-25T12:17:12.827Z,8.32
2023-01-25T12:19:52.910Z,8.60
2023-01-25T12:22:37.543Z,8.70
2023-01-25T12:25:21.920Z,8.52
2023-01-25T12:28:04.722Z,8.77
2023-01-25T12:30:43.529Z,9.13
2023-01-25T12:33:17.444Z,8.88
2023-01-25T12:35:51.022Z,9.20
2023-01-25T12:38:27.419Z,7.90
2023-01-25T12:41:01.141Z,8.85
2023-01-25T12:43:34.029Z,8.13
2023-01-25T12:46:12.336Z,9.45
2023-01-25T12:48:45.536Z,8.40
2023-01-25T12:51:14.758Z,8.55
2023-01-25T12:53:47.183Z,8.77
2023-01-25T12:56:31.301Z,8.57
2023-01-25T12:59:09.485Z,9.07
2023-01-25T13:01:46.760Z,8.73
2023-01-25T13:04:32.562Z,8.15
2023-01-25T13:07:05.447Z,8.25
2023-01-25T13:09:46.075Z,10.00
2023-01-25T13:12:16.303Z,8.90
2023-01-25T13:14:44.574Z,8.82
2023-01-25T13:17:22.405Z,9.65
2023-01-25T13:19:51.612Z,10.30
2023-01-25T13:22:55.073Z,10.45
2023-01-25T13:27:53.224Z,10.63
2023-01-25T13:30:29.812Z,11.63
2023-01-25T13:33:01.274Z,12.00
2023-01-25T13:35:34.641Z,10.27
2023-01-25T13:38:06.574Z,10.93
2023-01-25T13:40:37.484Z,11.10
2023-01-25T13:43:19.657Z,10.80
2023-01-25T13:45:50.819Z,10.90
2023-01-25T13:48:22.596Z,10.32
2023-01-25T13:50:54.483Z,10.82
2023-01-25T13:53:24.562Z,10.30
2023-01-25T13:55:54.328Z,10.95
2023-01-25T13:58:29.224Z,10.07
2023-01-25T14:00:59.364Z,10.80
2023-01-25T14:03:31.123Z,10.38
2023-01-25T14:06:02.694Z,10.43
2023-01-25T14:08:32.623Z,11.20
2023-01-25T14:11:01.125Z,10.93
2023-01-25T14:13:30.741Z,9.57
2023-01-25T14:16:00.696Z,9.43
2023-01-25T14:18:31.815Z,9.48
2023-01-25T14:21:16.155Z,10.63
2023-01-25T14:23:44.531Z,10.02
2023-01-25T14:26:25.306Z,10.00
2023-01-25T14:29:01.673Z,9.77
2023-01-25T14:31:34.064Z,9.52
2023-01-25T14:34:04.323Z,9.40
2023-01-25T14:36:34.653Z,8.10
2023-01-25T14:39:04.861Z,9.13
2023-01-25T14:41:35.658Z,9.23
2023-01-25T14:44:10.645Z,8.98
2023-01-25T14:46:40.497Z,9.75
2023-01-25T14:49:25.454Z,10.15
2023-01-25T14:52:00.595Z,10.65
2023-01-25T14:54:30.866Z,9.57
2023-01-25T14:57:01.305Z,9.85
2023-01-25T14:59:36.482Z,9.48
2023-01-25T15:02:19.649Z,9.48
2023-01-25T15:05:04.863Z,9.30
2023-01-25T15:07:45.328Z,9.50
2023-01-25T15:10:20.551Z,9.57
2023-01-25T15:13:13.711Z,9.63
2023-01-25T15:15:55.255Z,9.48
2023-01-25T15:18:42.656Z,9.48
2023-01-25T15:21:12.048Z,9.65
2023-01-25T15:23:43.298Z,10.68
2023-01-25T15:26:19.205Z,9.60
2023-01-25T15:28:48.489Z,9.63
2023-01-25T15:31:20.317Z,10.00
2023-01-25T15:33:48.875Z,10.38
2023-01-25T15:36:17.884Z,10.07
2023-01-25T15:38:46.606Z,10.60
2023-01-25T15:41:15.220Z,10.75
2023-01-25T15:43:43.811Z,10.15
2023-01-25T15:46:18.477Z,10.68
2023-01-25T15:48:51.643Z,11.30
2023-01-25T15:51:20.496Z,10.77
2023-01-25T15:53:50.446Z,11.73
2023-01-25T15:56:21.215Z,10.57
2023-01-25T15:58:53.631Z,12.07
2023-01-25T16:01:23.513Z,10.95
2023-01-25T16:03:54.150Z,10.48
2023-01-25T16:06:32.714Z,10.45
2023-01-25T16:09:01.684Z,12.55
2023-01-25T16:11:30.100Z,11.52
2023-01-25T16:13:59.126Z,11.63
2023-01-25T16:16:27.329Z,11.02
2023-01-25T16:18:57.227Z,11.07
2023-01-25T16:21:26.600Z,12.82
2023-01-25T16:23:56.257Z,11.77
2023-01-25T16:26:27.346Z,12.93
2023-01-25T16:28:55.570Z,12.18
2023-01-25T16:31:32.429Z,12.95
2023-01-25T16:34:03.558Z,12.75
2023-01-25T16:36:34.870Z,13.23
2023-01-25T16:39:10.656Z,12.73
2023-01-25T16:41:39.653Z,11.88
2023-01-25T16:44:08.351Z,13.45
2023-01-25T16:46:37.039Z,13.10
2023-01-25T16:49:10.561Z,13.00
2023-01-25T16:51:40.906Z,11.90
2023-01-25T16:54:12.669Z,12.00
2023-01-25T16:56:42.129Z,13.50
2023-01-25T16:59:13.083Z,12.13
2023-01-25T17:01:42.429Z,13.82
2023-01-25T17:04:12.534Z,13.00
2023-01-25T17:06:43.672Z,12.73
2023-01-25T17:09:22.820Z,12.25
2023-01-25T17:11:53.626Z,11.77
2023-01-25T17:14:23.903Z,12.82
2023-01-25T17:16:56.325Z,12.20
2023-01-25T17:19:26.887Z,11.75
2023-01-25T17:21:57.726Z,12.50
2023-01-25T17:24:26.680Z,11.75
2023-01-25T17:26:59.211Z,11.30
2023-01-25T17:29:30.040Z,11.75
2023-01-25T17:31:59.660Z,11.57
2023-01-25T17:34:32.067Z,11.63
2023-01-25T17:37:01.551Z,12.10
2023-01-25T17:39:30.907Z,11.32
2023-01-25T17:41:59.910Z,11.40
2023-01-25T17:44:29.423Z,12.55
2023-01-25T17:46:58.155Z,11.77
2023-01-25T17:49:29.197Z,11.35
2023-01-25T17:52:02.652Z,11.30
2023-01-25T17:54:33.607Z,10.70
2023-01-25T17:57:03.440Z,10.68
2023-01-25T17:59:32.792Z,11.10
2023-01-25T18:02:02.769Z,10.90
2023-01-25T18:04:34.567Z,11.55
2023-01-25T18:07:05.056Z,10.75
2023-01-25T18:09:36.359Z,11.10
2023-01-25T18:12:06.248Z,11.50
2023-01-25T18:14:36.084Z,11.32
2023-01-25T18:17:06.097Z,10.75
2023-01-25T18:19:39.523Z,11.85
2023-01-25T18:22:13.636Z,10.20
2023-01-25T18:24:46.172Z,10.55
2023-01-25T18:27:21.050Z,9.90
2023-01-25T18:29:56.609Z,11.68
2023-01-25T18:32:30.496Z,10.60
2023-01-25T18:35:00.531Z,11.85
2023-01-25T18:37:44.195Z,12.00
2023-01-25T18:40:18.314Z,13.07
2023-01-25T18:42:48.439Z,11.25
2023-01-25T18:45:18.484Z,12.25
2023-01-25T18:47:47.902Z,11.98
2023-01-25T18:50:17.966Z,11.55
2023-01-25T18:52:50.530Z,12.57
2023-01-25T18:55:22.211Z,11.52
2023-01-25T18:57:52.855Z,11.88
2023-01-25T19:00:22.857Z,12.55
2023-01-25T19:02:53.040Z,13.00
2023-01-25T19:05:27.338Z,13.00
2023-01-25T19:08:02.703Z,12.98
2023-01-25T19:10:36.412Z,12.57
2023-01-25T19:13:06.481Z,13.10
2023-01-25T19:15:37.171Z,13.00
2023-01-25T19:18:08.627Z,13.23
2023-01-25T19:20:40.572Z,12.45
2023-01-25T19:23:11.911Z,12.93
2023-01-25T19:25:45.317Z,13.32
2023-01-25T19:28:29.376Z,13.38
2023-01-25T19:31:08.799Z,14.05
2023-01-25T19:33:38.465Z,13.18
2023-01-25T19:36:12.261Z,13.32
2023-01-25T19:38:47.103Z,13.48
2023-01-25T19:41:19.840Z,13.95
2023-01-25T19:46:25.526Z,12.70
2023-01-25T19:48:57.039Z,12.38
2023-01-25T19:51:30.403Z,12.23
2023-01-25T19:54:04.584Z,11.85
2023-01-25T19:56:36.359Z,11.85
2023-01-25T19:59:09.726Z,12.68
2023-01-25T20:01:44.458Z,11.50
2023-01-25T20:04:17.296Z,11.20
2023-01-25T20:09:20.824Z,10.70
2023-01-25T20:11:51.105Z,10.05
2023-01-25T20:14:21.191Z,9.25
2023-01-25T20:16:53.303Z,9.43
2023-01-25T20:19:24.413Z,9.85
2023-01-25T20:21:54.402Z,9.73
2023-01-25T20:24:25.223Z,9.30
2023-01-25T20:26:59.273Z,9.18
2023-01-25T20:29:29.971Z,10.30
2023-01-25T20:32:00.683Z,9.32
2023-01-25T20:34:30.247Z,9.25
2023-01-25T20:37:01.000Z,9.20
2023-01-25T20:39:33.383Z,9.48
2023-01-25T20:42:04.163Z,10.02
2023-01-25T20:44:33.126Z,9.52
2023-01-25T20:47:05.987Z,9.73
2023-01-25T20:49:38.208Z,9.38
2023-01-25T20:52:18.421Z,9.20
2023-01-25T20:54:50.582Z,9.13
2023-01-25T20:57:21.053Z,8.30
2023-01-25T20:59:50.616Z,9.02
2023-01-25T21:02:23.095Z,8.45
2023-01-25T21:04:54.309Z,9.15
2023-01-25T21:07:24.417Z,8.43
2023-01-25T21:09:57.793Z,8.23
2023-01-25T21:12:28.505Z,8.48
2023-01-25T21:15:01.848Z,9.30
2023-01-25T21:17:31.305Z,9.43
2023-01-25T21:20:01.892Z,9.20
2023-01-25T21:22:32.792Z,8.85
2023-01-25T21:25:05.567Z,9.02
2023-01-25T21:30:04.426Z,9.45
2023-01-25T21:32:34.169Z,9.00
2023-01-25T21:35:03.056Z,8.65
2023-01-25T21:37:36.622Z,8.57
2023-01-25T21:40:08.848Z,8.57
2023-01-25T21:42:38.096Z,7.60
2023-01-25T21:45:24.890Z,7.88
2023-01-25T21:47:53.833Z,7.57
2023-01-25T21:50:39.683Z,8.27
2023-01-25T21:53:08.442Z,7.80
2023-01-25T21:55:38.276Z,7.68
2023-01-25T21:58:06.433Z,7.80
2023-01-25T22:00:36.025Z,7.30
2023-01-25T22:03:04.172Z,7.88
2023-01-25T22:05:32.488Z,7.57
2023-01-25T22:08:01.223Z,6.15
2023-01-25T22:10:29.341Z,6.70
2023-01-25T22:12:58.840Z,7.38
2023-01-25T22:15:26.997Z,6.85
2023-01-25T22:17:55.140Z,7.90
2023-01-25T22:20:23.261Z,7.50
2023-01-25T22:22:51.349Z,6.78
2023-01-25T22:25:19.417Z,6.63
2023-01-25T22:27:54.373Z,6.57
2023-01-25T22:30:24.429Z,7.18
2023-01-25T22:32:52.591Z,7.03
2023-01-25T22:35:20.661Z,7.85
2023-01-25T22:37:48.779Z,6.70
2023-01-25T22:40:17.209Z,6.63
2023-01-25T22:42:45.394Z,7.25
2023-01-25T22:45:13.523Z,7.43
2023-01-25T22:47:44.348Z,7.28
2023-01-25T22:50:13.097Z,8.65
2023-01-25T22:52:41.461Z,7.93
2023-01-25T22:55:10.553Z,8.57
2023-01-25T22:57:38.654Z,8.60
2023-01-25T23:00:08.449Z,8.48
2023-01-25T23:02:38.076Z,9.07
2023-01-25T23:05:09.212Z,10.02
2023-01-25T23:07:37.337Z,8.90
2023-01-25T23:10:06.148Z,9.85
2023-01-25T23:12:34.264Z,10.30
2023-01-25T23:15:02.816Z,15.68
2023-01-25T23:17:48.262Z,16.25
2023-01-25T23:20:18.058Z,17.67
2023-01-25T23:22:46.274Z,16.10
2023-01-25T23:25:14.373Z,16.55
2023-01-25T23:27:42.552Z,17.35
2023-01-25T23:30:12.093Z,17.38
2023-01-25T23:32:49.275Z,17.10
2023-01-25T23:35:20.846Z,14.55
2023-01-25T23:37:49.103Z,15.82
2023-01-25T23:40:17.740Z,14.65
2023-01-25T23:42:45.947Z,15.27
2023-01-25T23:45:14.100Z,16.58
2023-01-25T23:47:42.177Z,14.85
2023-01-25T23:50:12.005Z,15.25
2023-01-25T23:52:41.746Z,14.30
2023-01-25T23:55:11.153Z,15.52
2023-01-25T23:57:39.254Z,14.40
